Wellington International Airport

Airport
ICAO code: 
NZWN
IATA Code: 
WLG
Summary
ICAO Region: 
APAC
Territory: 
Location: 
Rongotai, Wellington,
Serving: 
Wellington
Elevation: 
42 ft
Coordinates: 
Aerial View: 
41° 19' 39.524" S, 174° 48' 37.849" E
Metar
Observation
NZWN 281430Z AUTO 34004KT 9999 BKN010/// BKN080/// 10/10 Q1013 NOSIG
Station
Wellington Airport
Date/Time
2022-06-28 14:30:00
Wind direction
340°
Wind speed
04 kts
Lowest cloud amount
broken clouds
Temperature
10°C
Dew point
10°C
Humidity
100%
QNH
1013 hPa
Weather condition
n/a

Description

Wellington International Airport (formerly known as Rongotai Airport) is located in the suburb of Rongotai in Wellington, New Zealand.

Climatology

Temperate Marine climate/Oceanic climate (Köppen climate classification Cfb). Moderately cool summer and comparatively warm winter with a temperature range of only 14°C.

Runways

Designator Length Width Surface Rops
16/34 1936 45 ASP Yes/Yes
Airport map: 
Aerial View: 

Accidents and Serious Incidents at or in the vicinity of NZWN

SKYbrary Partners:

Safety knowledge contributed by: